Time;durP1;ratioP1;P1;durP2;ratioP2;P2;SDS_P1;SDS_P2;PMS_P1;PMS_P2;Temp;Humidity;BMP_temperature;BMP_pressure;BME280_temperature;BME280_humidity;BME280_pressure;Samples;Min_cycle;Max_cycle;Signal;HPM_P1;HPM_P2
2021/01/27 00:01:43;;;;;;;4.90;3.42;;;;;;;;;;5049746;27;105673;-56
2021/01/27 00:04:09;;;;;;;4.05;3.30;;;;;;;;;;5050125;27;105157;-57
2021/01/27 00:06:34;;;;;;;5.72;3.75;;;;;;;;;;5052322;27;104996;-57
2021/01/27 00:09:00;;;;;;;5.20;3.38;;;;;;;;;;5055847;27;119256;-57
2021/01/27 00:11:25;;;;;;;4.68;3.47;;;;;;;;;;5022609;27;105339;-57
2021/01/27 00:13:51;;;;;;;5.40;3.53;;;;;;;;;;5049136;27;104941;-56
2021/01/27 00:16:16;;;;;;;6.30;3.58;;;;;;;;;;5049849;27;105594;-57
2021/01/27 00:18:42;;;;;;;5.80;3.70;;;;;;;;;;5049228;27;104971;-57
2021/01/27 00:21:07;;;;;;;4.40;3.45;;;;;;;;;;5057335;27;105069;-56
2021/01/27 00:23:32;;;;;;;4.22;3.38;;;;;;;;;;5048890;27;105318;-55
2021/01/27 00:25:58;;;;;;;4.68;3.60;;;;;;;;;;5050207;27;105581;-57
2021/01/27 00:28:23;;;;;;;4.50;3.40;;;;;;;;;;5048610;27;108516;-57
2021/01/27 00:30:49;;;;;;;4.82;3.50;;;;;;;;;;5052304;27;105252;-56
2021/01/27 00:33:15;;;;;;;4.40;3.58;;;;;;;;;;5049833;27;110835;-57
2021/01/27 00:35:42;;;;;;;5.43;3.50;;;;;;;;;;5048388;27;105073;-57
2021/01/27 00:38:13;;;;;;;4.70;3.55;;;;;;;;;;5050500;27;104889;-56
2021/01/27 00:40:39;;;;;;;4.00;3.38;;;;;;;;;;5050432;27;105728;-57
2021/01/27 00:43:04;;;;;;;5.35;3.63;;;;;;;;;;5048389;27;105315;-58
2021/01/27 00:45:29;;;;;;;5.82;3.75;;;;;;;;;;5050365;27;105241;-56
2021/01/27 00:47:55;;;;;;;4.93;3.17;;;;;;;;;;5049744;27;105346;-57
2021/01/27 00:50:20;;;;;;;5.15;3.60;;;;;;;;;;5063043;27;108623;-57
2021/01/27 00:52:49;;;;;;;5.32;3.50;;;;;;;;;;5049319;27;106097;-56
2021/01/27 00:55:21;;;;;;;4.70;3.60;;;;;;;;;;5048634;27;107877;-56
2021/01/27 00:57:50;;;;;;;5.20;3.60;;;;;;;;;;5017596;27;105027;-57
2021/01/27 01:00:32;;;;;;;5.38;3.60;;;;;;;;;;5048839;27;107328;-56
2021/01/27 01:02:59;;;;;;;5.95;3.72;;;;;;;;;;5048107;27;107193;-56
2021/01/27 01:05:26;;;;;;;4.72;3.30;;;;;;;;;;5047944;27;105691;-57
2021/01/27 01:07:52;;;;;;;4.32;3.35;;;;;;;;;;5050321;27;104971;-56
2021/01/27 01:10:21;;;;;;;4.68;3.42;;;;;;;;;;5051575;27;105104;-58
2021/01/27 01:12:47;;;;;;;5.25;3.63;;;;;;;;;;5056343;27;105097;-58
2021/01/27 01:15:13;;;;;;;5.68;3.70;;;;;;;;;;5052391;27;105009;-56
2021/01/27 01:17:39;;;;;;;5.15;3.55;;;;;;;;;;5052026;27;105123;-56
2021/01/27 01:20:06;;;;;;;5.93;3.35;;;;;;;;;;5034310;27;106846;-57
2021/01/27 01:22:31;;;;;;;4.97;3.60;;;;;;;;;;5049321;27;108669;-56
2021/01/27 01:24:57;;;;;;;5.10;3.42;;;;;;;;;;5052529;27;105106;-57
2021/01/27 01:27:22;;;;;;;4.85;3.53;;;;;;;;;;5051843;27;104955;-56
2021/01/27 01:29:48;;;;;;;4.40;3.38;;;;;;;;;;5051989;27;110799;-55
2021/01/27 01:32:13;;;;;;;5.30;3.50;;;;;;;;;;5051735;27;104992;-57
2021/01/27 01:34:39;;;;;;;4.20;3.13;;;;;;;;;;5054047;27;123419;-58
2021/01/27 01:37:04;;;;;;;4.43;3.40;;;;;;;;;;5052992;27;105045;-56
2021/01/27 01:39:36;;;;;;;5.28;3.38;;;;;;;;;;5057200;27;105540;-57
2021/01/27 01:42:01;;;;;;;5.35;3.58;;;;;;;;;;5051802;27;105460;-57
2021/01/27 01:44:27;;;;;;;4.63;3.60;;;;;;;;;;5052637;27;105004;-57
2021/01/27 01:46:52;;;;;;;4.97;3.38;;;;;;;;;;5050822;27;115138;-57
2021/01/27 01:49:17;;;;;;;4.82;3.30;;;;;;;;;;5052075;27;118870;-57
2021/01/27 01:51:54;;;;;;;5.00;3.60;;;;;;;;;;5051595;27;105442;-57
2021/01/27 01:54:23;;;;;;;4.60;3.30;;;;;;;;;;5051543;27;105863;-57
2021/01/27 01:56:54;;;;;;;4.57;3.33;;;;;;;;;;5054844;27;105748;-56
2021/01/27 01:59:20;;;;;;;5.68;3.40;;;;;;;;;;5054662;27;104992;-57
2021/01/27 02:01:46;;;;;;;5.05;3.45;;;;;;;;;;5050018;27;110636;-58
2021/01/27 02:04:11;;;;;;;4.10;3.33;;;;;;;;;;5052047;27;105022;-57
2021/01/27 02:06:37;;;;;;;4.88;3.25;;;;;;;;;;5034109;27;104973;-56
2021/01/27 02:09:03;;;;;;;4.20;3.13;;;;;;;;;;5051284;27;105268;-57
2021/01/27 02:11:41;;;;;;;5.45;3.60;;;;;;;;;;5050794;27;105004;-56
2021/01/27 02:14:13;;;;;;;4.97;3.25;;;;;;;;;;5052412;27;105872;-57
2021/01/27 02:17:00;;;;;;;4.50;3.00;;;;;;;;;;5052222;27;105357;-57
2021/01/27 02:19:54;;;;;;;4.78;3.20;;;;;;;;;;5039357;27;105032;-57
2021/01/27 02:22:34;;;;;;;4.28;2.88;;;;;;;;;;5050417;27;108081;-56
2021/01/27 02:25:06;;;;;;;3.97;2.80;;;;;;;;;;5038535;27;105010;-56
2021/01/27 02:27:36;;;;;;;3.95;2.58;;;;;;;;;;5051296;27;105631;-58
2021/01/27 02:30:21;;;;;;;4.40;2.90;;;;;;;;;;5054480;27;105712;-56
2021/01/27 02:33:04;;;;;;;4.35;2.88;;;;;;;;;;5053835;27;104902;-57
2021/01/27 02:35:48;;;;;;;4.07;2.60;;;;;;;;;;5050282;27;105566;-56
2021/01/27 02:38:22;;;;;;;3.78;2.53;;;;;;;;;;5052867;27;105581;-56
2021/01/27 02:41:19;;;;;;;4.10;2.80;;;;;;;;;;5042509;27;104950;-57
2021/01/27 02:43:51;;;;;;;3.25;2.50;;;;;;;;;;5042002;27;105931;-57
2021/01/27 02:46:19;;;;;;;4.13;2.58;;;;;;;;;;5035747;27;105408;-55
2021/01/27 02:49:25;;;;;;;2.95;2.30;;;;;;;;;;5033808;27;105771;-55
2021/01/27 02:51:57;;;;;;;4.05;2.15;;;;;;;;;;4982789;28;105606;-56
2021/01/27 02:54:32;;;;;;;3.85;2.20;;;;;;;;;;4945367;28;105420;-57
2021/01/27 02:57:08;;;;;;;2.63;1.85;;;;;;;;;;5014244;27;105150;-57
2021/01/27 02:59:44;;;;;;;2.50;1.98;;;;;;;;;;5049304;27;105525;-57
2021/01/27 03:02:14;;;;;;;3.25;2.30;;;;;;;;;;5051849;27;105257;-57
2021/01/27 03:04:41;;;;;;;2.80;1.90;;;;;;;;;;5035707;27;105016;-56
2021/01/27 03:07:07;;;;;;;2.35;2.10;;;;;;;;;;5053525;27;105261;-56
2021/01/27 03:09:41;;;;;;;3.33;1.95;;;;;;;;;;5049290;27;104915;-57
2021/01/27 03:12:08;;;;;;;2.63;1.90;;;;;;;;;;5036919;27;105049;-57
2021/01/27 03:14:33;;;;;;;2.33;1.73;;;;;;;;;;5032504;27;105005;-56
2021/01/27 03:17:00;;;;;;;2.70;1.80;;;;;;;;;;5050136;27;107752;-57
2021/01/27 03:19:39;;;;;;;2.47;1.65;;;;;;;;;;5049666;27;106047;-57
2021/01/27 03:22:36;;;;;;;2.90;1.80;;;;;;;;;;5052163;27;105098;-56
2021/01/27 03:25:10;;;;;;;3.05;1.70;;;;;;;;;;5026311;27;105713;-56
2021/01/27 03:27:39;;;;;;;1.55;1.45;;;;;;;;;;5041602;27;107464;-57
2021/01/27 03:30:07;;;;;;;2.47;1.70;;;;;;;;;;5049005;27;105592;-57
2021/01/27 03:32:33;;;;;;;2.28;1.60;;;;;;;;;;5049814;27;106528;-57
2021/01/27 03:35:28;;;;;;;1.55;1.40;;;;;;;;;;5050583;27;105070;-56
2021/01/27 03:38:14;;;;;;;1.85;1.50;;;;;;;;;;5034079;27;106185;-57
2021/01/27 03:40:40;;;;;;;1.58;1.40;;;;;;;;;;5038347;27;105107;-56
2021/01/27 03:43:16;;;;;;;1.95;1.52;;;;;;;;;;5034037;27;105066;-57
2021/01/27 03:45:48;;;;;;;2.80;1.63;;;;;;;;;;5054937;27;105075;-57
2021/01/27 03:48:30;;;;;;;2.45;1.40;;;;;;;;;;5062064;27;105584;-56
2021/01/27 03:50:56;;;;;;;2.58;1.40;;;;;;;;;;5036873;27;105115;-57
2021/01/27 03:53:21;;;;;;;2.30;1.40;;;;;;;;;;5032286;27;105566;-57
2021/01/27 03:56:26;;;;;;;1.50;1.15;;;;;;;;;;5033399;27;104892;-57
2021/01/27 03:58:51;;;;;;;1.40;1.30;;;;;;;;;;5044661;27;105100;-57
2021/01/27 04:01:18;;;;;;;2.00;1.40;;;;;;;;;;5050277;27;105668;-57
2021/01/27 04:03:44;;;;;;;1.70;1.35;;;;;;;;;;5033206;27;105017;-56
2021/01/27 04:06:09;;;;;;;1.63;1.40;;;;;;;;;;5052709;27;110571;-57
2021/01/27 04:08:35;;;;;;;2.40;1.60;;;;;;;;;;5043752;27;107633;-57
2021/01/27 04:11:01;;;;;;;2.45;1.30;;;;;;;;;;5051055;27;104934;-57
2021/01/27 04:13:27;;;;;;;2.15;1.50;;;;;;;;;;5059339;27;105641;-57
2021/01/27 04:15:52;;;;;;;1.95;1.60;;;;;;;;;;5048361;27;105218;-56
2021/01/27 04:18:18;;;;;;;1.40;1.20;;;;;;;;;;5050465;27;107397;-57
2021/01/27 04:20:43;;;;;;;2.35;1.40;;;;;;;;;;5049052;27;104935;-56
2021/01/27 04:23:09;;;;;;;2.10;1.50;;;;;;;;;;5050688;27;105568;-56
2021/01/27 04:25:34;;;;;;;1.67;1.50;;;;;;;;;;5049575;27;105378;-57
2021/01/27 04:27:59;;;;;;;1.38;1.27;;;;;;;;;;5049943;27;105590;-57
2021/01/27 04:30:29;;;;;;;1.83;1.50;;;;;;;;;;5052983;27;104881;-56
2021/01/27 04:32:55;;;;;;;2.75;1.70;;;;;;;;;;5049266;27;105817;-57
2021/01/27 04:35:20;;;;;;;2.30;1.65;;;;;;;;;;5054204;27;105234;-57
2021/01/27 04:37:45;;;;;;;2.78;1.65;;;;;;;;;;5049358;27;112670;-56
2021/01/27 04:40:14;;;;;;;2.38;1.80;;;;;;;;;;5048562;27;105749;-56
2021/01/27 04:42:39;;;;;;;3.15;1.80;;;;;;;;;;5052994;27;104976;-56
2021/01/27 04:45:06;;;;;;;2.42;1.67;;;;;;;;;;5052173;27;105664;-54
2021/01/27 04:48:04;;;;;;;2.10;1.48;;;;;;;;;;5053669;27;105228;-57
2021/01/27 04:50:45;;;;;;;3.38;1.40;;;;;;;;;;5041144;27;105069;-57
2021/01/27 04:53:48;;;;;;;2.63;1.67;;;;;;;;;;5048443;27;105080;-57
2021/01/27 04:56:40;;;;;;;1.80;1.52;;;;;;;;;;5056189;27;106583;-55
2021/01/27 04:59:13;;;;;;;;;;;;;;;;;;5025939;27;104920;-58
2021/01/27 05:01:54;;;;;;;2.33;1.50;;;;;;;;;;5053140;27;104969;-57
2021/01/27 05:04:37;;;;;;;1.70;1.40;;;;;;;;;;5052712;27;105003;-57
2021/01/27 05:07:07;;;;;;;1.80;1.42;;;;;;;;;;5052268;27;105567;-56
2021/01/27 05:09:39;;;;;;;1.90;1.60;;;;;;;;;;5034143;27;104998;-57
2021/01/27 05:12:04;;;;;;;2.72;1.67;;;;;;;;;;5053037;27;105392;-56
2021/01/27 05:14:30;;;;;;;1.98;1.50;;;;;;;;;;5034559;27;105418;-57
2021/01/27 05:16:56;;;;;;;2.83;1.60;;;;;;;;;;5050729;27;105644;-57
2021/01/27 05:19:21;;;;;;;1.67;1.58;;;;;;;;;;5038235;27;105839;-57
2021/01/27 05:21:55;;;;;;;2.13;1.67;;;;;;;;;;5050529;27;105557;-58
2021/01/27 05:24:21;;;;;;;2.00;1.60;;;;;;;;;;5051597;27;105035;-57
2021/01/27 05:26:58;;;;;;;1.92;1.38;;;;;;;;;;5053399;27;112371;-56
2021/01/27 05:29:31;;;;;;;1.90;1.60;;;;;;;;;;5038134;27;108386;-57
2021/01/27 05:32:08;;;;;;;2.03;1.40;;;;;;;;;;5035034;27;105069;-57
2021/01/27 05:34:38;;;;;;;2.17;1.38;;;;;;;;;;5054260;27;104972;-56
2021/01/27 05:37:06;;;;;;;1.73;1.60;;;;;;;;;;5068103;27;105743;-57
2021/01/27 05:39:32;;;;;;;1.50;1.40;;;;;;;;;;5051273;27;105085;-57
2021/01/27 05:42:11;;;;;;;2.33;1.60;;;;;;;;;;5066746;27;105717;-56
2021/01/27 05:44:36;;;;;;;1.60;1.30;;;;;;;;;;5039942;27;105018;-57
2021/01/27 05:47:24;;;;;;;1.90;1.50;;;;;;;;;;5051132;27;105058;-57
2021/01/27 05:49:49;;;;;;;1.90;1.60;;;;;;;;;;5053046;27;105333;-56
2021/01/27 05:52:17;;;;;;;1.85;1.40;;;;;;;;;;5062129;27;105372;-57
2021/01/27 05:54:42;;;;;;;1.65;1.50;;;;;;;;;;5051276;27;105452;-57
2021/01/27 05:57:21;;;;;;;1.83;1.58;;;;;;;;;;5050662;27;114520;-56
2021/01/27 05:59:46;;;;;;;1.58;1.48;;;;;;;;;;5052841;27;105258;-56
2021/01/27 06:02:12;;;;;;;2.83;1.45;;;;;;;;;;5034940;27;105132;-57
2021/01/27 06:04:37;;;;;;;2.38;1.73;;;;;;;;;;5054576;27;106299;-56
2021/01/27 06:07:28;;;;;;;1.83;1.60;;;;;;;;;;5052133;27;104967;-57
2021/01/27 06:09:54;;;;;;;2.00;1.60;;;;;;;;;;5050537;27;104968;-57
2021/01/27 06:12:19;;;;;;;1.88;1.67;;;;;;;;;;5029137;27;105009;-59
2021/01/27 06:15:04;;;;;;;1.63;1.52;;;;;;;;;;5051662;27;105009;-57
2021/01/27 06:17:44;;;;;;;1.48;1.30;;;;;;;;;;5052106;27;105750;-56
2021/01/27 06:20:17;;;;;;;2.35;1.70;;;;;;;;;;5063186;27;105264;-57
2021/01/27 06:22:49;;;;;;;1.50;1.40;;;;;;;;;;5048665;27;105516;-56
2021/01/27 06:25:31;;;;;;;2.85;1.90;;;;;;;;;;5052180;27;104965;-56
2021/01/27 06:28:24;;;;;;;2.03;1.80;;;;;;;;;;5053992;27;104982;-57
2021/01/27 06:31:18;;;;;;;2.17;1.60;;;;;;;;;;5051044;27;105021;-56
2021/01/27 06:33:55;;;;;;;1.60;1.50;;;;;;;;;;5052048;27;104950;-56
2021/01/27 06:36:34;;;;;;;1.98;1.75;;;;;;;;;;5053002;27;105040;-57
2021/01/27 06:39:22;;;;;;;2.67;1.85;;;;;;;;;;5048829;27;105024;-58
2021/01/27 06:42:05;;;;;;;2.67;2.00;;;;;;;;;;5040015;27;105008;-57
2021/01/27 06:44:41;;;;;;;2.13;1.70;;;;;;;;;;5053609;27;105024;-58
2021/01/27 06:47:14;;;;;;;2.67;2.15;;;;;;;;;;5045579;27;105658;-58
2021/01/27 06:50:17;;;;;;;1.98;1.70;;;;;;;;;;5053050;27;105185;-58
2021/01/27 06:53:04;;;;;;;2.13;1.65;;;;;;;;;;5053987;27;105713;-57
2021/01/27 06:55:50;;;;;;;2.15;1.80;;;;;;;;;;5049574;27;105280;-57
2021/01/27 06:58:54;;;;;;;2.10;1.63;;;;;;;;;;5052657;27;105811;-57
2021/01/27 07:01:55;;;;;;;2.05;1.80;;;;;;;;;;5050545;27;105579;-56
2021/01/27 07:04:58;;;;;;;2.22;1.63;;;;;;;;;;5038684;27;105057;-57
2021/01/27 07:07:39;;;;;;;2.03;1.77;;;;;;;;;;5052409;27;105849;-56
2021/01/27 07:10:52;;;;;;;1.88;1.60;;;;;;;;;;5051043;27;104968;-56
2021/01/27 07:13:26;;;;;;;3.13;1.73;;;;;;;;;;4992174;28;105149;-56
2021/01/27 07:16:01;;;;;;;1.98;1.52;;;;;;;;;;4995110;28;105096;-56
2021/01/27 07:18:53;;;;;;;2.40;1.70;;;;;;;;;;4983067;28;105867;-56
2021/01/27 07:21:27;;;;;;;2.05;1.30;;;;;;;;;;4990282;28;105466;-56
2021/01/27 07:24:18;;;;;;;2.08;1.40;;;;;;;;;;4989812;28;105700;-56
2021/01/27 07:26:58;;;;;;;1.70;1.52;;;;;;;;;;4990000;28;105104;-56
2021/01/27 07:29:26;;;;;;;2.05;1.67;;;;;;;;;;4981573;28;105680;-57
2021/01/27 07:31:57;;;;;;;2.35;1.33;;;;;;;;;;4961139;28;105518;-57
2021/01/27 07:34:44;;;;;;;2.20;1.30;;;;;;;;;;4964244;28;105664;-57
2021/01/27 07:37:30;;;;;;;2.80;1.63;;;;;;;;;;4984152;28;105748;-56
2021/01/27 07:40:11;;;;;;;1.60;1.30;;;;;;;;;;4991278;28;105360;-57
2021/01/27 07:43:04;;;;;;;1.63;1.43;;;;;;;;;;4984036;28;107354;-57
2021/01/27 07:45:35;;;;;;;2.05;1.40;;;;;;;;;;5052089;27;105235;-57
2021/01/27 07:48:12;;;;;;;1.88;1.27;;;;;;;;;;5043841;27;105366;-56
2021/01/27 07:50:38;;;;;;;1.88;1.48;;;;;;;;;;5053863;27;104958;-57
2021/01/27 07:53:22;;;;;;;1.98;1.42;;;;;;;;;;5049215;27;105537;-57
2021/01/27 07:56:03;;;;;;;1.77;1.20;;;;;;;;;;5051350;27;105543;-57
2021/01/27 07:58:47;;;;;;;1.33;1.23;;;;;;;;;;5052428;27;105584;-53
2021/01/27 08:01:34;;;;;;;1.65;1.27;;;;;;;;;;5049180;27;108252;-57
2021/01/27 08:04:09;;;;;;;1.70;1.35;;;;;;;;;;5053862;27;105093;-54
2021/01/27 08:06:43;;;;;;;1.75;1.13;;;;;;;;;;5038133;27;105356;-57
2021/01/27 08:09:08;;;;;;;2.17;1.20;;;;;;;;;;5032780;27;105431;-57
2021/01/27 08:11:42;;;;;;;2.28;1.30;;;;;;;;;;5025234;27;108529;-57
2021/01/27 08:14:09;;;;;;;1.23;1.10;;;;;;;;;;5052800;27;105732;-59
2021/01/27 08:16:42;;;;;;;1.55;1.30;;;;;;;;;;5053433;27;105037;-58
2021/01/27 08:19:07;;;;;;;1.17;1.08;;;;;;;;;;5054260;27;104979;-58
2021/01/27 08:21:45;;;;;;;1.15;0.93;;;;;;;;;;5052480;27;105808;-58
2021/01/27 08:24:38;;;;;;;2.00;1.30;;;;;;;;;;5054809;27;105208;-58
2021/01/27 08:27:10;;;;;;;1.30;1.20;;;;;;;;;;5056458;27;104998;-58
2021/01/27 08:29:40;;;;;;;2.00;1.17;;;;;;;;;;5053576;27;105728;-58
2021/01/27 08:32:24;;;;;;;2.55;1.20;;;;;;;;;;5054977;27;104946;-57
2021/01/27 08:34:50;;;;;;;1.55;1.10;;;;;;;;;;5055054;27;105043;-57
2021/01/27 08:37:24;;;;;;;1.45;1.20;;;;;;;;;;5029690;27;105011;-57
2021/01/27 08:40:05;;;;;;;2.08;1.10;;;;;;;;;;5053347;27;105501;-57
2021/01/27 08:42:42;;;;;;;1.35;1.17;;;;;;;;;;5055965;27;104963;-57
2021/01/27 08:45:16;;;;;;;1.25;1.10;;;;;;;;;;5036486;27;105432;-57
2021/01/27 08:47:41;;;;;;;2.08;1.10;;;;;;;;;;5054221;27;104892;-57
2021/01/27 08:50:30;;;;;;;1.70;1.10;;;;;;;;;;5056678;27;105584;-57
2021/01/27 08:53:03;;;;;;;1.25;1.13;;;;;;;;;;5043887;27;105470;-57
2021/01/27 08:55:35;;;;;;;1.45;1.30;;;;;;;;;;5037353;27;109683;-58
2021/01/27 08:58:19;;;;;;;1.65;1.15;;;;;;;;;;5052810;27;105282;-57
2021/01/27 09:00:44;;;;;;;1.35;1.08;;;;;;;;;;5054870;27;105095;-57
2021/01/27 09:03:29;;;;;;;1.65;1.10;;;;;;;;;;5053873;27;105054;-57
2021/01/27 09:05:54;;;;;;;1.70;1.30;;;;;;;;;;5052951;27;105171;-56
2021/01/27 09:08:26;;;;;;;1.67;1.20;;;;;;;;;;5035525;27;105977;-58
2021/01/27 09:10:57;;;;;;;0.90;0.90;;;;;;;;;;5052326;27;105694;-57
2021/01/27 09:13:45;;;;;;;1.37;1.20;;;;;;;;;;5054585;27;105372;-57
2021/01/27 09:16:16;;;;;;;1.13;0.90;;;;;;;;;;5051510;27;105068;-57
2021/01/27 09:18:42;;;;;;;1.20;1.10;;;;;;;;;;5035109;27;104993;-55
2021/01/27 09:21:15;;;;;;;0.82;0.82;;;;;;;;;;5035299;27;105675;-58
2021/01/27 09:23:41;;;;;;;1.10;1.00;;;;;;;;;;5051273;27;105515;-57
2021/01/27 09:26:18;;;;;;;1.90;0.90;;;;;;;;;;5050410;27;105001;-57
2021/01/27 09:28:44;;;;;;;1.10;0.90;;;;;;;;;;5050837;27;105861;-56
2021/01/27 09:31:18;;;;;;;1.25;1.00;;;;;;;;;;5026501;27;105077;-53
2021/01/27 09:33:44;;;;;;;1.23;1.08;;;;;;;;;;5054716;27;105038;-56
2021/01/27 09:36:21;;;;;;;1.00;0.90;;;;;;;;;;5051247;27;105097;-57
2021/01/27 09:38:57;;;;;;;1.65;1.15;;;;;;;;;;5036350;27;105120;-56
2021/01/27 09:41:24;;;;;;;0.85;0.80;;;;;;;;;;5054857;27;105511;-54
2021/01/27 09:43:50;;;;;;;1.10;1.00;;;;;;;;;;5052245;27;106050;-56
2021/01/27 09:46:28;;;;;;;1.10;0.80;;;;;;;;;;5045497;27;105343;-56
2021/01/27 09:48:55;;;;;;;1.00;0.90;;;;;;;;;;5044198;27;104955;-56
2021/01/27 09:51:20;;;;;;;0.80;0.80;;;;;;;;;;5034582;27;105001;-54
2021/01/27 09:53:46;;;;;;;0.80;0.80;;;;;;;;;;5024402;27;105525;-55
2021/01/27 09:56:17;;;;;;;1.17;0.80;;;;;;;;;;5053510;27;105608;-56
2021/01/27 09:58:43;;;;;;;;;;;;;;;;;;5035613;27;105032;-57
2021/01/27 10:01:14;;;;;;;0.70;0.70;;;;;;;;;;5042812;27;105058;-59
2021/01/27 10:03:46;;;;;;;1.10;0.80;;;;;;;;;;5056052;27;105623;-57
2021/01/27 10:06:40;;;;;;;0.85;0.80;;;;;;;;;;5038652;27;105005;-57
2021/01/27 10:09:20;;;;;;;1.58;0.80;;;;;;;;;;5052170;27;105295;-58
2021/01/27 10:11:47;;;;;;;0.80;0.75;;;;;;;;;;5038761;27;105627;-58
2021/01/27 10:14:22;;;;;;;0.80;0.80;;;;;;;;;;5053076;27;104967;-58
2021/01/27 10:16:56;;;;;;;0.70;0.70;;;;;;;;;;5038547;27;105038;-58
2021/01/27 10:19:33;;;;;;;1.10;0.75;;;;;;;;;;5060728;27;105620;-56
2021/01/27 10:22:00;;;;;;;0.95;0.70;;;;;;;;;;5051632;27;105057;-57
2021/01/27 10:24:46;;;;;;;1.13;0.80;;;;;;;;;;5051648;27;105362;-57
2021/01/27 10:27:20;;;;;;;0.60;0.60;;;;;;;;;;5052457;27;105775;-59
2021/01/27 10:29:45;;;;;;;3.53;2.13;;;;;;;;;;5052590;27;105671;-56
2021/01/27 10:35:49;;;;;;;0.70;0.70;;;;;;;;;;5049793;27;104737;-56
2021/01/27 10:38:17;;;;;;;0.93;0.90;;;;;;;;;;5006949;28;105615;-56
2021/01/27 10:41:01;;;;;;;0.70;0.70;;;;;;;;;;5007288;28;104873;-56
2021/01/27 10:43:28;;;;;;;0.60;0.60;;;;;;;;;;5010287;28;106962;-55
2021/01/27 10:45:53;;;;;;;0.90;0.70;;;;;;;;;;5006252;28;105692;-55
2021/01/27 10:48:28;;;;;;;1.15;0.70;;;;;;;;;;5007428;28;105907;-55
2021/01/27 10:51:05;;;;;;;0.57;0.57;;;;;;;;;;4989419;28;105184;-53
2021/01/27 10:53:36;;;;;;;0.70;0.70;;;;;;;;;;5010933;28;105537;-57
2021/01/27 10:56:02;;;;;;;0.70;0.70;;;;;;;;;;5013350;28;105739;-54
2021/01/27 10:58:28;;;;;;;0.70;0.70;;;;;;;;;;5007213;28;105534;-50
2021/01/27 11:00:53;;;;;;;0.60;0.60;;;;;;;;;;5007225;28;105146;-53
2021/01/27 11:03:19;;;;;;;0.70;0.70;;;;;;;;;;5009720;28;105450;-55
2021/01/27 11:05:44;;;;;;;0.60;0.60;;;;;;;;;;5009536;28;105845;-57
2021/01/27 11:08:11;;;;;;;1.05;0.70;;;;;;;;;;5010882;28;105219;-57
2021/01/27 11:10:37;;;;;;;0.93;0.70;;;;;;;;;;4996521;28;105109;-57
2021/01/27 11:13:02;;;;;;;0.60;0.60;;;;;;;;;;5008101;28;117846;-55
2021/01/27 11:15:28;;;;;;;1.20;0.50;;;;;;;;;;5007914;27;105193;-56
2021/01/27 11:17:53;;;;;;;0.70;0.70;;;;;;;;;;5019945;27;105525;-54
2021/01/27 11:20:22;;;;;;;0.60;0.60;;;;;;;;;;5017985;28;105644;-55
2021/01/27 11:22:51;;;;;;;0.65;0.60;;;;;;;;;;5008404;28;105528;-53
2021/01/27 11:25:21;;;;;;;1.38;0.75;;;;;;;;;;5007333;28;105497;-56
2021/01/27 11:27:46;;;;;;;0.88;0.70;;;;;;;;;;5006418;28;104954;-55
2021/01/27 11:30:13;;;;;;;0.93;0.85;;;;;;;;;;5008879;28;104982;-55
2021/01/27 11:32:38;;;;;;;1.27;0.93;;;;;;;;;;5006298;28;105340;-55
2021/01/27 11:35:04;;;;;;;0.70;0.70;;;;;;;;;;5007245;28;105288;-55
2021/01/27 11:37:29;;;;;;;0.70;0.70;;;;;;;;;;5006723;27;106909;-54
2021/01/27 11:39:55;;;;;;;0.70;0.70;;;;;;;;;;5010758;28;105632;-52
2021/01/27 11:42:20;;;;;;;0.70;0.70;;;;;;;;;;5007293;28;104891;-51
2021/01/27 11:44:46;;;;;;;0.60;0.60;;;;;;;;;;5005980;28;105203;-51
2021/01/27 11:47:11;;;;;;;0.80;0.70;;;;;;;;;;4995669;28;105536;-54
2021/01/27 11:49:37;;;;;;;0.73;0.70;;;;;;;;;;4994682;28;105182;-55
2021/01/27 11:52:04;;;;;;;0.80;0.70;;;;;;;;;;4992363;28;105556;-55
2021/01/27 11:54:30;;;;;;;0.52;0.52;;;;;;;;;;4993052;28;104917;-53
2021/01/27 11:56:55;;;;;;;0.90;0.80;;;;;;;;;;4986949;28;105632;-55
2021/01/27 11:59:20;;;;;;;0.70;0.70;;;;;;;;;;4992880;28;105721;-51
2021/01/27 12:01:46;;;;;;;0.80;0.80;;;;;;;;;;4996438;28;105473;-52
2021/01/27 12:04:12;;;;;;;0.95;0.70;;;;;;;;;;4995781;28;104962;-52
2021/01/27 12:06:37;;;;;;;1.00;0.70;;;;;;;;;;4993303;28;105045;-56
2021/01/27 12:09:03;;;;;;;1.60;0.80;;;;;;;;;;4993649;28;104927;-54
2021/01/27 12:11:29;;;;;;;1.38;0.90;;;;;;;;;;4990791;28;105902;-52
2021/01/27 12:13:54;;;;;;;0.90;0.70;;;;;;;;;;4996133;28;105569;-53
2021/01/27 12:16:20;;;;;;;1.02;0.70;;;;;;;;;;4992930;28;106890;-56
2021/01/27 12:18:45;;;;;;;0.70;0.70;;;;;;;;;;4946358;28;107887;-57
2021/01/27 12:21:11;;;;;;;0.60;0.60;;;;;;;;;;4994039;28;105196;-56
2021/01/27 12:23:36;;;;;;;0.80;0.80;;;;;;;;;;4994902;28;105662;-56
2021/01/27 12:26:02;;;;;;;0.73;0.73;;;;;;;;;;4990707;28;105872;-55
2021/01/27 12:28:27;;;;;;;0.82;0.77;;;;;;;;;;4991876;28;105528;-55
2021/01/27 12:30:53;;;;;;;0.65;0.60;;;;;;;;;;4991224;28;105083;-55
2021/01/27 12:33:18;;;;;;;0.70;0.70;;;;;;;;;;4991992;28;105257;-56
2021/01/27 12:35:43;;;;;;;0.98;0.80;;;;;;;;;;4991668;28;105469;-53
2021/01/27 12:38:09;;;;;;;0.60;0.60;;;;;;;;;;4990989;28;104947;-52
2021/01/27 12:40:34;;;;;;;0.50;0.50;;;;;;;;;;4990986;28;105107;-54
2021/01/27 12:43:00;;;;;;;0.60;0.60;;;;;;;;;;4991360;28;104913;-54
2021/01/27 12:45:27;;;;;;;0.70;0.70;;;;;;;;;;4993868;28;105835;-55
2021/01/27 12:47:53;;;;;;;0.80;0.80;;;;;;;;;;4990957;28;105000;-56
2021/01/27 12:50:19;;;;;;;1.15;0.70;;;;;;;;;;4990658;28;104997;-53
2021/01/27 12:52:45;;;;;;;0.80;0.80;;;;;;;;;;4992097;28;105308;-55
2021/01/27 12:55:12;;;;;;;0.80;0.70;;;;;;;;;;4990533;28;105592;-56
2021/01/27 12:57:38;;;;;;;0.77;0.77;;;;;;;;;;4989768;28;105193;-52
2021/01/27 13:00:05;;;;;;;0.60;0.60;;;;;;;;;;4991381;28;105244;-56
2021/01/27 13:02:30;;;;;;;0.65;0.65;;;;;;;;;;4980494;28;105673;-51
2021/01/27 13:04:56;;;;;;;0.80;0.80;;;;;;;;;;4993654;28;107564;-55
2021/01/27 13:07:22;;;;;;;0.80;0.80;;;;;;;;;;4992373;28;105604;-54
2021/01/27 13:09:47;;;;;;;1.23;1.05;;;;;;;;;;4990284;28;104920;-54
2021/01/27 13:12:13;;;;;;;0.80;0.70;;;;;;;;;;4991764;28;105806;-55
2021/01/27 13:14:38;;;;;;;0.70;0.70;;;;;;;;;;4990214;28;109124;-52
2021/01/27 13:17:04;;;;;;;0.82;0.80;;;;;;;;;;4993940;28;107311;-52
2021/01/27 13:19:29;;;;;;;0.80;0.70;;;;;;;;;;4990915;28;105026;-54
2021/01/27 13:21:55;;;;;;;0.73;0.70;;;;;;;;;;4991176;28;108924;-52
2021/01/27 13:24:20;;;;;;;0.70;0.70;;;;;;;;;;4990453;28;105603;-53
2021/01/27 13:26:46;;;;;;;0.65;0.60;;;;;;;;;;4996182;28;104940;-55
2021/01/27 13:29:11;;;;;;;0.82;0.60;;;;;;;;;;4988170;28;105741;-52
2021/01/27 13:31:39;;;;;;;0.65;0.65;;;;;;;;;;4990095;28;105400;-50
2021/01/27 13:34:05;;;;;;;0.70;0.70;;;;;;;;;;4990405;28;104982;-53
2021/01/27 13:36:31;;;;;;;0.80;0.80;;;;;;;;;;4988321;28;105050;-50
2021/01/27 13:38:56;;;;;;;0.80;0.80;;;;;;;;;;4988379;28;105024;-53
2021/01/27 13:41:22;;;;;;;0.95;0.88;;;;;;;;;;4990423;28;105374;-49
2021/01/27 13:43:47;;;;;;;1.00;0.80;;;;;;;;;;4989879;28;105607;-52
2021/01/27 13:46:13;;;;;;;0.75;0.75;;;;;;;;;;4990646;28;104988;-50
2021/01/27 13:48:38;;;;;;;1.02;0.90;;;;;;;;;;4993216;28;105523;-52
2021/01/27 13:51:03;;;;;;;1.05;0.98;;;;;;;;;;4991961;28;105459;-51
2021/01/27 13:53:29;;;;;;;0.80;0.80;;;;;;;;;;4990243;28;105521;-55
2021/01/27 13:55:54;;;;;;;1.10;1.00;;;;;;;;;;4989742;28;104994;-54
2021/01/27 13:58:20;;;;;;;0.70;0.70;;;;;;;;;;4984709;28;105048;-53
2021/01/27 14:00:45;;;;;;;0.70;0.70;;;;;;;;;;4989920;28;105517;-52
2021/01/27 14:03:11;;;;;;;0.60;0.60;;;;;;;;;;4975399;28;106221;-54
2021/01/27 14:05:36;;;;;;;0.80;0.80;;;;;;;;;;4990227;28;105102;-54
2021/01/27 14:08:02;;;;;;;0.60;0.60;;;;;;;;;;4991785;28;107284;-54
2021/01/27 14:10:31;;;;;;;0.70;0.70;;;;;;;;;;4992708;28;105474;-55
2021/01/27 14:12:57;;;;;;;0.70;0.70;;;;;;;;;;4990226;28;105630;-52
2021/01/27 14:15:24;;;;;;;0.60;0.60;;;;;;;;;;4989482;28;107757;-54
2021/01/27 14:17:49;;;;;;;0.68;0.60;;;;;;;;;;4989387;28;105055;-55
2021/01/27 14:20:16;;;;;;;0.70;0.70;;;;;;;;;;4990218;28;105533;-52
2021/01/27 14:22:42;;;;;;;0.80;0.77;;;;;;;;;;4993084;28;105066;-55
2021/01/27 14:25:11;;;;;;;0.50;0.50;;;;;;;;;;4990267;28;105032;-51
2021/01/27 14:27:39;;;;;;;0.82;0.75;;;;;;;;;;4988181;28;105480;-52
2021/01/27 14:30:06;;;;;;;0.77;0.70;;;;;;;;;;4990178;28;105536;-51
2021/01/27 14:32:31;;;;;;;0.70;0.70;;;;;;;;;;4993098;28;105164;-52
2021/01/27 14:34:56;;;;;;;0.70;0.70;;;;;;;;;;4990624;28;108391;-52
2021/01/27 14:37:22;;;;;;;0.70;0.70;;;;;;;;;;4984057;28;105772;-52
2021/01/27 14:39:47;;;;;;;0.70;0.70;;;;;;;;;;4989850;28;104991;-51
2021/01/27 14:42:13;;;;;;;0.80;0.80;;;;;;;;;;4990535;28;106274;-51
2021/01/27 14:44:38;;;;;;;2.47;1.40;;;;;;;;;;4986208;28;105047;-55
2021/01/27 14:47:04;;;;;;;2.65;1.60;;;;;;;;;;4988815;28;105202;-51
2021/01/27 14:49:29;;;;;;;2.03;1.33;;;;;;;;;;4988061;28;105543;-51
2021/01/27 14:51:55;;;;;;;0.90;0.90;;;;;;;;;;4996622;28;104991;-55
2021/01/27 14:54:21;;;;;;;0.93;0.75;;;;;;;;;;4989144;28;105549;-55
2021/01/27 14:56:46;;;;;;;0.85;0.77;;;;;;;;;;4989562;28;106041;-54
2021/01/27 14:59:12;;;;;;;0.70;0.70;;;;;;;;;;4990782;28;105642;-52